sensor_id;sensor_type;location;lat;lon;timestamp;temperature;humidity
48936;DHT22;34745;52.276;10.528;2022-08-19T00:01:23;21.50;4.40
48936;DHT22;34745;52.276;10.528;2022-08-19T00:03:56;21.30;11.70
48936;DHT22;34745;52.276;10.528;2022-08-19T00:06:23;21.40;11.50
48936;DHT22;34745;52.276;10.528;2022-08-19T00:08:50;21.40;10.50
48936;DHT22;34745;52.276;10.528;2022-08-19T00:11:19;21.30;15.00
48936;DHT22;34745;52.276;10.528;2022-08-19T00:13:51;21.40;15.60
48936;DHT22;34745;52.276;10.528;2022-08-19T00:16:19;21.40;13.10
48936;DHT22;34745;52.276;10.528;2022-08-19T00:18:52;21.30;15.60
48936;DHT22;34745;52.276;10.528;2022-08-19T00:21:19;21.30;12.10
48936;DHT22;34745;52.276;10.528;2022-08-19T00:23:46;21.30;15.10
48936;DHT22;34745;52.276;10.528;2022-08-19T00:26:14;21.20;17.80
48936;DHT22;34745;52.276;10.528;2022-08-19T00:28:42;21.20;19.30
48936;DHT22;34745;52.276;10.528;2022-08-19T00:31:10;21.20;19.80
48936;DHT22;34745;52.276;10.528;2022-08-19T00:33:36;21.10;21.10
48936;DHT22;34745;52.276;10.528;2022-08-19T00:36:06;21.10;20.20
48936;DHT22;34745;52.276;10.528;2022-08-19T00:38:35;21.10;15.50
48936;DHT22;34745;52.276;10.528;2022-08-19T00:41:04;21.20;14.90
48936;DHT22;34745;52.276;10.528;2022-08-19T00:43:31;21.20;12.10
48936;DHT22;34745;52.276;10.528;2022-08-19T00:46:00;21.30;6.80
48936;DHT22;34745;52.276;10.528;2022-08-19T00:48:33;21.20;9.30
48936;DHT22;34745;52.276;10.528;2022-08-19T00:51:01;21.10;12.20
48936;DHT22;34745;52.276;10.528;2022-08-19T00:53:29;21.10;12.20
48936;DHT22;34745;52.276;10.528;2022-08-19T00:56:00;21.10;14.10
48936;DHT22;34745;52.276;10.528;2022-08-19T00:58:30;21.20;9.10
48936;DHT22;34745;52.276;10.528;2022-08-19T01:01:00;21.20;2.10
48936;DHT22;34745;52.276;10.528;2022-08-19T01:03:27;21.20;1.00
48936;DHT22;34745;52.276;10.528;2022-08-19T01:06:15;21.20;1.00
48936;DHT22;34745;52.276;10.528;2022-08-19T01:08:46;21.20;1.00
48936;DHT22;34745;52.276;10.528;2022-08-19T01:11:16;21.10;1.00
48936;DHT22;34745;52.276;10.528;2022-08-19T01:13:45;21.00;1.00
48936;DHT22;34745;52.276;10.528;2022-08-19T01:16:18;21.00;1.80
48936;DHT22;34745;52.276;10.528;2022-08-19T01:18:46;21.00;1.70
48936;DHT22;34745;52.276;10.528;2022-08-19T01:21:19;21.00;2.90
48936;DHT22;34745;52.276;10.528;2022-08-19T01:23:49;21.00;2.80
48936;DHT22;34745;52.276;10.528;2022-08-19T01:26:18;21.00;1.70
48936;DHT22;34745;52.276;10.528;2022-08-19T01:28:49;21.10;1.00
48936;DHT22;34745;52.276;10.528;2022-08-19T01:31:21;21.00;1.00
48936;DHT22;34745;52.276;10.528;2022-08-19T01:33:55;21.20;1.00
48936;DHT22;34745;52.276;10.528;2022-08-19T01:36:24;21.00;1.00
48936;DHT22;34745;52.276;10.528;2022-08-19T01:38:54;21.00;1.00
48936;DHT22;34745;52.276;10.528;2022-08-19T01:41:21;21.10;1.00
48936;DHT22;34745;52.276;10.528;2022-08-19T01:43:50;21.00;1.00
48936;DHT22;34745;52.276;10.528;2022-08-19T01:46:38;21.00;1.00
48936;DHT22;34745;52.276;10.528;2022-08-19T01:49:06;20.90;1.00
48936;DHT22;34745;52.276;10.528;2022-08-19T01:51:34;20.90;1.00
48936;DHT22;34745;52.276;10.528;2022-08-19T01:54:07;20.80;1.00
48936;DHT22;34745;52.276;10.528;2022-08-19T01:56:35;20.70;1.00
48936;DHT22;34745;52.276;10.528;2022-08-19T01:59:04;20.70;1.00
48936;DHT22;34745;52.276;10.528;2022-08-19T02:01:33;20.70;1.00
48936;DHT22;34745;52.276;10.528;2022-08-19T02:04:02;20.70;5.10
48936;DHT22;34745;52.276;10.528;2022-08-19T02:06:29;20.60;5.80
48936;DHT22;34745;52.276;10.528;2022-08-19T02:08:56;20.70;1.00
48936;DHT22;34745;52.276;10.528;2022-08-19T02:11:28;20.70;1.00
48936;DHT22;34745;52.276;10.528;2022-08-19T02:13:58;20.70;1.00
48936;DHT22;34745;52.276;10.528;2022-08-19T02:20:04;20.70;1.00
48936;DHT22;34745;52.276;10.528;2022-08-19T02:22:33;20.60;1.00
48936;DHT22;34745;52.276;10.528;2022-08-19T02:25:00;20.50;1.80
48936;DHT22;34745;52.276;10.528;2022-08-19T02:27:29;20.50;1.00
48936;DHT22;34745;52.276;10.528;2022-08-19T02:29:56;20.60;2.80
48936;DHT22;34745;52.276;10.528;2022-08-19T02:32:23;20.50;4.80
48936;DHT22;34745;52.276;10.528;2022-08-19T02:34:50;20.60;1.00
48936;DHT22;34745;52.276;10.528;2022-08-19T02:37:17;20.60;1.00
48936;DHT22;34745;52.276;10.528;2022-08-19T02:40:03;20.50;1.00
48936;DHT22;34745;52.276;10.528;2022-08-19T02:42:39;20.40;4.10
48936;DHT22;34745;52.276;10.528;2022-08-19T02:45:08;20.40;4.70
48936;DHT22;34745;52.276;10.528;2022-08-19T02:47:35;20.50;1.30
48936;DHT22;34745;52.276;10.528;2022-08-19T02:50:03;20.40;1.00
48936;DHT22;34745;52.276;10.528;2022-08-19T02:52:32;20.40;4.60
48936;DHT22;34745;52.276;10.528;2022-08-19T02:54:59;20.40;99.90
48936;DHT22;34745;52.276;10.528;2022-08-19T02:57:27;20.40;1.00
48936;DHT22;34745;52.276;10.528;2022-08-19T02:59:55;19.90;99.90
48936;DHT22;34745;52.276;10.528;2022-08-19T03:02:22;20.20;21.50
48936;DHT22;34745;52.276;10.528;2022-08-19T03:04:49;20.20;15.80
48936;DHT22;34745;52.276;10.528;2022-08-19T03:07:17;20.20;17.00
48936;DHT22;34745;52.276;10.528;2022-08-19T03:09:45;20.10;18.30
48936;DHT22;34745;52.276;10.528;2022-08-19T03:12:12;20.00;28.90
48936;DHT22;34745;52.276;10.528;2022-08-19T03:14:39;20.00;31.70
48936;DHT22;34745;52.276;10.528;2022-08-19T03:17:07;20.00;32.90
48936;DHT22;34745;52.276;10.528;2022-08-19T03:19:34;20.10;24.10
48936;DHT22;34745;52.276;10.528;2022-08-19T03:22:02;20.00;24.80
48936;DHT22;34745;52.276;10.528;2022-08-19T03:24:30;19.90;35.80
48936;DHT22;34745;52.276;10.528;2022-08-19T03:26:58;20.00;26.40
48936;DHT22;34745;52.276;10.528;2022-08-19T03:29:26;19.90;27.00
48936;DHT22;34745;52.276;10.528;2022-08-19T03:31:57;19.90;20.90
48936;DHT22;34745;52.276;10.528;2022-08-19T03:34:28;20.00;25.20
48936;DHT22;34745;52.276;10.528;2022-08-19T03:36:57;20.00;18.00
48936;DHT22;34745;52.276;10.528;2022-08-19T03:39:25;20.10;15.90
48936;DHT22;34745;52.276;10.528;2022-08-19T03:41:53;19.90;23.00
48936;DHT22;34745;52.276;10.528;2022-08-19T03:44:42;19.90;24.10
48936;DHT22;34745;52.276;10.528;2022-08-19T03:47:12;19.90;26.70
48936;DHT22;34745;52.276;10.528;2022-08-19T03:49:44;19.90;22.10
48936;DHT22;34745;52.276;10.528;2022-08-19T03:52:11;19.90;20.30
48936;DHT22;34745;52.276;10.528;2022-08-19T03:54:39;19.90;24.20
48936;DHT22;34745;52.276;10.528;2022-08-19T03:57:06;20.00;19.60
48936;DHT22;34745;52.276;10.528;2022-08-19T03:59:35;19.90;15.60
48936;DHT22;34745;52.276;10.528;2022-08-19T04:02:08;19.90;25.10
48936;DHT22;34745;52.276;10.528;2022-08-19T04:04:36;19.70;34.60
48936;DHT22;34745;52.276;10.528;2022-08-19T04:07:05;19.80;29.00
48936;DHT22;34745;52.276;10.528;2022-08-19T04:09:33;19.90;29.80
48936;DHT22;34745;52.276;10.528;2022-08-19T04:12:00;19.80;27.50
48936;DHT22;34745;52.276;10.528;2022-08-19T04:14:29;19.80;30.80
48936;DHT22;34745;52.276;10.528;2022-08-19T04:17:02;19.80;29.30
48936;DHT22;34745;52.276;10.528;2022-08-19T04:19:32;19.70;31.00
48936;DHT22;34745;52.276;10.528;2022-08-19T04:21:59;19.60;39.50
48936;DHT22;34745;52.276;10.528;2022-08-19T04:24:28;19.70;35.40
48936;DHT22;34745;52.276;10.528;2022-08-19T04:26:55;19.50;44.40
48936;DHT22;34745;52.276;10.528;2022-08-19T04:29:24;19.50;40.70
48936;DHT22;34745;52.276;10.528;2022-08-19T04:31:53;19.50;41.50
48936;DHT22;34745;52.276;10.528;2022-08-19T04:34:22;19.50;45.80
48936;DHT22;34745;52.276;10.528;2022-08-19T04:36:51;19.50;44.60
48936;DHT22;34745;52.276;10.528;2022-08-19T04:39:20;19.50;45.70
48936;DHT22;34745;52.276;10.528;2022-08-19T04:41:49;19.50;40.50
48936;DHT22;34745;52.276;10.528;2022-08-19T04:44:35;19.50;39.10
48936;DHT22;34745;52.276;10.528;2022-08-19T04:47:12;19.60;33.10
48936;DHT22;34745;52.276;10.528;2022-08-19T04:49:38;19.50;28.00
48936;DHT22;34745;52.276;10.528;2022-08-19T04:52:06;19.50;34.20
48936;DHT22;34745;52.276;10.528;2022-08-19T04:54:32;19.60;26.30
48936;DHT22;34745;52.276;10.528;2022-08-19T04:57:07;19.40;33.00
48936;DHT22;34745;52.276;10.528;2022-08-19T04:59:36;19.50;29.80
48936;DHT22;34745;52.276;10.528;2022-08-19T05:02:06;19.50;24.10
48936;DHT22;34745;52.276;10.528;2022-08-19T05:04:33;19.50;26.90
48936;DHT22;34745;52.276;10.528;2022-08-19T05:07:00;19.40;32.30
48936;DHT22;34745;52.276;10.528;2022-08-19T05:09:28;19.40;36.70
48936;DHT22;34745;52.276;10.528;2022-08-19T05:12:17;19.40;38.40
48936;DHT22;34745;52.276;10.528;2022-08-19T05:14:44;19.40;39.10
48936;DHT22;34745;52.276;10.528;2022-08-19T05:17:12;19.50;37.00
48936;DHT22;34745;52.276;10.528;2022-08-19T05:20:00;19.30;40.50
48936;DHT22;34745;52.276;10.528;2022-08-19T05:22:47;19.30;49.20
48936;DHT22;34745;52.276;10.528;2022-08-19T05:25:19;19.30;55.00
48936;DHT22;34745;52.276;10.528;2022-08-19T05:27:48;19.30;47.10
48936;DHT22;34745;52.276;10.528;2022-08-19T05:30:15;19.20;54.10
48936;DHT22;34745;52.276;10.528;2022-08-19T05:32:44;19.30;54.90
48936;DHT22;34745;52.276;10.528;2022-08-19T05:35:11;19.40;43.30
48936;DHT22;34745;52.276;10.528;2022-08-19T05:37:38;19.20;53.70
48936;DHT22;34745;52.276;10.528;2022-08-19T05:40:07;19.10;62.80
48936;DHT22;34745;52.276;10.528;2022-08-19T05:42:34;19.10;68.20
48936;DHT22;34745;52.276;10.528;2022-08-19T05:45:03;19.10;69.30
48936;DHT22;34745;52.276;10.528;2022-08-19T05:47:31;19.20;68.10
48936;DHT22;34745;52.276;10.528;2022-08-19T05:49:58;19.20;58.90
48936;DHT22;34745;52.276;10.528;2022-08-19T05:52:26;19.10;62.20
48936;DHT22;34745;52.276;10.528;2022-08-19T05:54:56;19.10;67.00
48936;DHT22;34745;52.276;10.528;2022-08-19T05:57:23;19.10;67.00
48936;DHT22;34745;52.276;10.528;2022-08-19T05:59:51;19.10;60.60
48936;DHT22;34745;52.276;10.528;2022-08-19T06:02:26;19.10;56.80
48936;DHT22;34745;52.276;10.528;2022-08-19T06:04:53;19.10;52.80
48936;DHT22;34745;52.276;10.528;2022-08-19T06:07:20;19.20;52.80
48936;DHT22;34745;52.276;10.528;2022-08-19T06:09:47;19.20;47.30
48936;DHT22;34745;52.276;10.528;2022-08-19T06:12:27;19.20;46.30
48936;DHT22;34745;52.276;10.528;2022-08-19T06:14:57;19.10;57.90
48936;DHT22;34745;52.276;10.528;2022-08-19T06:17:29;19.20;42.10
48936;DHT22;34745;52.276;10.528;2022-08-19T06:19:57;19.30;37.40
48936;DHT22;34745;52.276;10.528;2022-08-19T06:22:26;19.40;29.90
48936;DHT22;34745;52.276;10.528;2022-08-19T06:24:53;19.40;24.20
48936;DHT22;34745;52.276;10.528;2022-08-19T06:27:21;19.40;20.70
48936;DHT22;34745;52.276;10.528;2022-08-19T06:29:49;19.20;26.90
48936;DHT22;34745;52.276;10.528;2022-08-19T06:32:17;19.30;28.70
48936;DHT22;34745;52.276;10.528;2022-08-19T06:34:46;19.30;30.90
48936;DHT22;34745;52.276;10.528;2022-08-19T06:37:14;19.20;30.40
48936;DHT22;34745;52.276;10.528;2022-08-19T06:39:43;19.10;43.00
48936;DHT22;34745;52.276;10.528;2022-08-19T06:42:12;19.20;40.50
48936;DHT22;34745;52.276;10.528;2022-08-19T06:44:45;19.30;27.20
48936;DHT22;34745;52.276;10.528;2022-08-19T06:47:16;19.40;22.10
48936;DHT22;34745;52.276;10.528;2022-08-19T06:49:53;19.30;12.50
48936;DHT22;34745;52.276;10.528;2022-08-19T06:52:25;19.30;14.90
48936;DHT22;34745;52.276;10.528;2022-08-19T06:54:52;19.30;15.00
48936;DHT22;34745;52.276;10.528;2022-08-19T06:57:23;19.30;12.00
48936;DHT22;34745;52.276;10.528;2022-08-19T06:59:50;19.40;9.60
48936;DHT22;34745;52.276;10.528;2022-08-19T07:02:18;19.30;6.60
48936;DHT22;34745;52.276;10.528;2022-08-19T07:04:45;19.30;7.00
48936;DHT22;34745;52.276;10.528;2022-08-19T07:07:14;19.30;5.20
48936;DHT22;34745;52.276;10.528;2022-08-19T07:09:46;19.20;9.40
48936;DHT22;34745;52.276;10.528;2022-08-19T07:12:26;19.30;5.20
48936;DHT22;34745;52.276;10.528;2022-08-19T07:14:56;19.30;6.70
48936;DHT22;34745;52.276;10.528;2022-08-19T07:17:24;19.30;5.20
48936;DHT22;34745;52.276;10.528;2022-08-19T07:19:52;19.30;12.20
48936;DHT22;34745;52.276;10.528;2022-08-19T07:22:21;19.30;1.80
48936;DHT22;34745;52.276;10.528;2022-08-19T07:24:50;19.30;1.00
48936;DHT22;34745;52.276;10.528;2022-08-19T07:27:18;19.40;1.00
48936;DHT22;34745;52.276;10.528;2022-08-19T07:29:51;19.40;1.00
48936;DHT22;34745;52.276;10.528;2022-08-19T07:32:23;19.50;1.00
48936;DHT22;34745;52.276;10.528;2022-08-19T07:34:52;19.20;1.00
48936;DHT22;34745;52.276;10.528;2022-08-19T07:37:21;19.20;1.00
48936;DHT22;34745;52.276;10.528;2022-08-19T07:39:48;19.30;1.00
48936;DHT22;34745;52.276;10.528;2022-08-19T07:42:15;19.40;1.00
48936;DHT22;34745;52.276;10.528;2022-08-19T07:44:43;19.40;1.00
48936;DHT22;34745;52.276;10.528;2022-08-19T07:47:16;19.30;1.00
48936;DHT22;34745;52.276;10.528;2022-08-19T07:50:07;19.50;1.00
48936;DHT22;34745;52.276;10.528;2022-08-19T07:52:37;19.40;1.00
48936;DHT22;34745;52.276;10.528;2022-08-19T07:55:07;19.40;1.00
48936;DHT22;34745;52.276;10.528;2022-08-19T07:57:55;19.40;1.00
48936;DHT22;34745;52.276;10.528;2022-08-19T08:00:22;19.40;1.00
48936;DHT22;34745;52.276;10.528;2022-08-19T08:02:50;19.40;1.00
48936;DHT22;34745;52.276;10.528;2022-08-19T08:05:20;19.40;1.00
48936;DHT22;34745;52.276;10.528;2022-08-19T08:08:11;19.40;1.00
48936;DHT22;34745;52.276;10.528;2022-08-19T08:10:59;19.40;1.00
48936;DHT22;34745;52.276;10.528;2022-08-19T08:13:27;19.20;1.00
48936;DHT22;34745;52.276;10.528;2022-08-19T08:15:55;19.60;1.00
48936;DHT22;34745;52.276;10.528;2022-08-19T08:18:22;19.40;1.00
48936;DHT22;34745;52.276;10.528;2022-08-19T08:20:53;19.40;1.00
48936;DHT22;34745;52.276;10.528;2022-08-19T08:23:22;19.40;1.00
48936;DHT22;34745;52.276;10.528;2022-08-19T08:25:49;19.40;1.00
48936;DHT22;34745;52.276;10.528;2022-08-19T08:28:17;19.50;1.00
48936;DHT22;34745;52.276;10.528;2022-08-19T08:30:45;19.50;1.00
48936;DHT22;34745;52.276;10.528;2022-08-19T08:33:18;19.50;1.00
48936;DHT22;34745;52.276;10.528;2022-08-19T08:36:00;19.50;1.00
48936;DHT22;34745;52.276;10.528;2022-08-19T08:38:30;19.50;1.00
48936;DHT22;34745;52.276;10.528;2022-08-19T08:41:09;19.50;1.00
48936;DHT22;34745;52.276;10.528;2022-08-19T08:43:40;19.60;1.00
48936;DHT22;34745;52.276;10.528;2022-08-19T08:46:13;19.70;1.00
48936;DHT22;34745;52.276;10.528;2022-08-19T08:49:02;19.60;1.00
48936;DHT22;34745;52.276;10.528;2022-08-19T08:51:34;19.70;1.00
48936;DHT22;34745;52.276;10.528;2022-08-19T08:54:06;19.70;1.00
48936;DHT22;34745;52.276;10.528;2022-08-19T08:56:37;19.80;1.00
48936;DHT22;34745;52.276;10.528;2022-08-19T08:59:07;19.90;1.00
48936;DHT22;34745;52.276;10.528;2022-08-19T09:01:36;19.90;1.00
48936;DHT22;34745;52.276;10.528;2022-08-19T09:04:05;20.00;1.00
48936;DHT22;34745;52.276;10.528;2022-08-19T09:06:38;20.10;1.00
48936;DHT22;34745;52.276;10.528;2022-08-19T09:09:14;20.00;1.00
48936;DHT22;34745;52.276;10.528;2022-08-19T09:11:56;20.10;1.00
48936;DHT22;34745;52.276;10.528;2022-08-19T09:14:35;20.10;1.00
48936;DHT22;34745;52.276;10.528;2022-08-19T09:17:22;20.20;1.00
48936;DHT22;34745;52.276;10.528;2022-08-19T09:19:59;20.20;1.00
48936;DHT22;34745;52.276;10.528;2022-08-19T09:22:31;20.20;1.00
48936;DHT22;34745;52.276;10.528;2022-08-19T09:25:00;20.20;1.00
48936;DHT22;34745;52.276;10.528;2022-08-19T09:27:28;20.10;1.00
48936;DHT22;34745;52.276;10.528;2022-08-19T09:30:15;20.10;1.00
48936;DHT22;34745;52.276;10.528;2022-08-19T09:32:42;20.10;1.00
48936;DHT22;34745;52.276;10.528;2022-08-19T09:35:10;20.10;1.00
48936;DHT22;34745;52.276;10.528;2022-08-19T09:37:39;20.20;1.00
48936;DHT22;34745;52.276;10.528;2022-08-19T09:40:08;20.30;1.00
48936;DHT22;34745;52.276;10.528;2022-08-19T09:42:37;20.20;1.00
48936;DHT22;34745;52.276;10.528;2022-08-19T09:45:18;20.10;1.00
48936;DHT22;34745;52.276;10.528;2022-08-19T09:47:47;20.20;1.00
48936;DHT22;34745;52.276;10.528;2022-08-19T09:50:15;20.20;1.00
48936;DHT22;34745;52.276;10.528;2022-08-19T09:52:42;20.30;1.00
48936;DHT22;34745;52.276;10.528;2022-08-19T09:55:24;20.40;1.00
48936;DHT22;34745;52.276;10.528;2022-08-19T09:57:59;20.30;1.00
48936;DHT22;34745;52.276;10.528;2022-08-19T10:00:26;20.30;1.00
48936;DHT22;34745;52.276;10.528;2022-08-19T10:02:53;20.40;1.00
48936;DHT22;34745;52.276;10.528;2022-08-19T10:05:20;20.30;1.00
48936;DHT22;34745;52.276;10.528;2022-08-19T10:08:08;20.40;1.00
48936;DHT22;34745;52.276;10.528;2022-08-19T10:10:42;20.40;1.00
48936;DHT22;34745;52.276;10.528;2022-08-19T10:13:15;20.40;1.00
48936;DHT22;34745;52.276;10.528;2022-08-19T10:15:43;20.40;1.00
48936;DHT22;34745;52.276;10.528;2022-08-19T10:18:14;20.50;1.00
48936;DHT22;34745;52.276;10.528;2022-08-19T10:20:43;20.50;1.00
48936;DHT22;34745;52.276;10.528;2022-08-19T10:23:18;20.50;1.00
48936;DHT22;34745;52.276;10.528;2022-08-19T10:25:49;20.60;1.00
48936;DHT22;34745;52.276;10.528;2022-08-19T10:28:16;20.70;1.00
48936;DHT22;34745;52.276;10.528;2022-08-19T10:30:45;20.90;1.00
48936;DHT22;34745;52.276;10.528;2022-08-19T10:33:13;20.80;1.00
48936;DHT22;34745;52.276;10.528;2022-08-19T10:36:03;20.80;1.00
48936;DHT22;34745;52.276;10.528;2022-08-19T10:38:31;20.90;1.00
48936;DHT22;34745;52.276;10.528;2022-08-19T10:41:08;20.80;1.00
48936;DHT22;34745;52.276;10.528;2022-08-19T10:43:35;20.90;1.00
48936;DHT22;34745;52.276;10.528;2022-08-19T10:46:05;20.90;1.00
48936;DHT22;34745;52.276;10.528;2022-08-19T10:48:40;21.10;1.00
48936;DHT22;34745;52.276;10.528;2022-08-19T10:51:08;21.20;1.00
48936;DHT22;34745;52.276;10.528;2022-08-19T10:53:54;21.20;1.00
48936;DHT22;34745;52.276;10.528;2022-08-19T10:56:24;21.30;1.00
48936;DHT22;34745;52.276;10.528;2022-08-19T10:59:09;21.40;1.00
48936;DHT22;34745;52.276;10.528;2022-08-19T11:01:36;21.50;1.00
48936;DHT22;34745;52.276;10.528;2022-08-19T11:04:04;21.30;1.00
48936;DHT22;34745;52.276;10.528;2022-08-19T11:06:32;21.30;1.00
48936;DHT22;34745;52.276;10.528;2022-08-19T11:08:58;21.40;1.00
48936;DHT22;34745;52.276;10.528;2022-08-19T11:11:28;21.50;1.00
48936;DHT22;34745;52.276;10.528;2022-08-19T11:13:55;21.50;1.00
48936;DHT22;34745;52.276;10.528;2022-08-19T11:16:24;21.80;1.00
48936;DHT22;34745;52.276;10.528;2022-08-19T11:18:54;21.70;1.00
48936;DHT22;34745;52.276;10.528;2022-08-19T11:21:23;21.70;1.00
48936;DHT22;34745;52.276;10.528;2022-08-19T11:23:53;21.80;1.00
48936;DHT22;34745;52.276;10.528;2022-08-19T11:26:21;21.80;1.00
48936;DHT22;34745;52.276;10.528;2022-08-19T11:28:50;21.90;1.00
48936;DHT22;34745;52.276;10.528;2022-08-19T11:31:24;22.10;1.00
48936;DHT22;34745;52.276;10.528;2022-08-19T11:33:56;22.10;1.00
48936;DHT22;34745;52.276;10.528;2022-08-19T11:36:23;22.10;1.00
48936;DHT22;34745;52.276;10.528;2022-08-19T11:38:51;22.10;1.00
48936;DHT22;34745;52.276;10.528;2022-08-19T11:41:20;22.30;1.00
48936;DHT22;34745;52.276;10.528;2022-08-19T11:43:47;22.20;1.00
48936;DHT22;34745;52.276;10.528;2022-08-19T11:46:16;22.40;1.00
48936;DHT22;34745;52.276;10.528;2022-08-19T11:48:44;22.50;1.00
48936;DHT22;34745;52.276;10.528;2022-08-19T11:51:13;22.60;1.00
48936;DHT22;34745;52.276;10.528;2022-08-19T11:53:41;22.40;1.00
48936;DHT22;34745;52.276;10.528;2022-08-19T11:56:09;22.40;1.00
48936;DHT22;34745;52.276;10.528;2022-08-19T11:58:37;22.50;1.00
48936;DHT22;34745;52.276;10.528;2022-08-19T12:01:06;22.70;1.00
48936;DHT22;34745;52.276;10.528;2022-08-19T12:03:36;22.70;1.00
48936;DHT22;34745;52.276;10.528;2022-08-19T12:06:05;22.70;1.00
48936;DHT22;34745;52.276;10.528;2022-08-19T12:08:32;22.90;1.00
48936;DHT22;34745;52.276;10.528;2022-08-19T12:10:59;23.20;1.00
48936;DHT22;34745;52.276;10.528;2022-08-19T12:13:28;23.50;1.00
48936;DHT22;34745;52.276;10.528;2022-08-19T12:15:56;23.90;1.00
48936;DHT22;34745;52.276;10.528;2022-08-19T12:18:24;24.10;1.00
48936;DHT22;34745;52.276;10.528;2022-08-19T12:20:54;24.20;1.00
48936;DHT22;34745;52.276;10.528;2022-08-19T12:23:24;24.50;1.00
48936;DHT22;34745;52.276;10.528;2022-08-19T12:25:51;24.40;1.00
48936;DHT22;34745;52.276;10.528;2022-08-19T12:28:19;24.20;1.00
48936;DHT22;34745;52.276;10.528;2022-08-19T12:30:47;24.40;1.00
48936;DHT22;34745;52.276;10.528;2022-08-19T12:33:14;24.60;1.00
48936;DHT22;34745;52.276;10.528;2022-08-19T12:35:41;24.50;1.00
48936;DHT22;34745;52.276;10.528;2022-08-19T12:38:13;24.50;1.00
48936;DHT22;34745;52.276;10.528;2022-08-19T12:40:40;24.80;1.00
48936;DHT22;34745;52.276;10.528;2022-08-19T12:43:07;25.00;1.00
48936;DHT22;34745;52.276;10.528;2022-08-19T12:45:42;24.90;1.00
48936;DHT22;34745;52.276;10.528;2022-08-19T12:48:28;24.80;1.00
48936;DHT22;34745;52.276;10.528;2022-08-19T12:51:06;25.10;1.00
48936;DHT22;34745;52.276;10.528;2022-08-19T12:54:05;25.40;1.00
48936;DHT22;34745;52.276;10.528;2022-08-19T12:56:53;25.60;1.00
48936;DHT22;34745;52.276;10.528;2022-08-19T12:59:36;25.50;1.00
48936;DHT22;34745;52.276;10.528;2022-08-19T13:02:08;25.80;1.00
48936;DHT22;34745;52.276;10.528;2022-08-19T13:04:41;25.50;1.00
48936;DHT22;34745;52.276;10.528;2022-08-19T13:07:17;25.10;1.00
48936;DHT22;34745;52.276;10.528;2022-08-19T13:09:51;25.00;1.00
48936;DHT22;34745;52.276;10.528;2022-08-19T13:12:25;25.70;1.00
48936;DHT22;34745;52.276;10.528;2022-08-19T13:14:56;26.30;1.00
48936;DHT22;34745;52.276;10.528;2022-08-19T13:17:28;26.70;1.00
48936;DHT22;34745;52.276;10.528;2022-08-19T13:19:56;26.80;1.00
48936;DHT22;34745;52.276;10.528;2022-08-19T13:22:30;27.10;1.00
48936;DHT22;34745;52.276;10.528;2022-08-19T13:25:13;27.40;1.00
48936;DHT22;34745;52.276;10.528;2022-08-19T13:27:58;27.20;1.00
48936;DHT22;34745;52.276;10.528;2022-08-19T13:30:34;27.00;1.00
48936;DHT22;34745;52.276;10.528;2022-08-19T13:33:21;27.20;1.00
48936;DHT22;34745;52.276;10.528;2022-08-19T13:35:57;27.60;1.00
48936;DHT22;34745;52.276;10.528;2022-08-19T13:38:37;27.70;1.00
48936;DHT22;34745;52.276;10.528;2022-08-19T13:41:08;28.10;1.00
48936;DHT22;34745;52.276;10.528;2022-08-19T13:43:49;28.40;1.00
48936;DHT22;34745;52.276;10.528;2022-08-19T13:46:20;28.50;1.00
48936;DHT22;34745;52.276;10.528;2022-08-19T13:48:55;28.40;1.00
48936;DHT22;34745;52.276;10.528;2022-08-19T13:51:25;27.90;1.00
48936;DHT22;34745;52.276;10.528;2022-08-19T13:53:56;28.10;1.00
48936;DHT22;34745;52.276;10.528;2022-08-19T13:56:29;28.40;1.00
48936;DHT22;34745;52.276;10.528;2022-08-19T13:58:59;28.60;1.00
48936;DHT22;34745;52.276;10.528;2022-08-19T14:01:31;28.40;1.00
48936;DHT22;34745;52.276;10.528;2022-08-19T14:04:11;28.30;1.00
48936;DHT22;34745;52.276;10.528;2022-08-19T14:06:55;27.60;1.00
48936;DHT22;34745;52.276;10.528;2022-08-19T14:09:29;27.40;1.00
48936;DHT22;34745;52.276;10.528;2022-08-19T14:12:40;27.70;1.00
48936;DHT22;34745;52.276;10.528;2022-08-19T14:15:50;27.60;1.00
48936;DHT22;34745;52.276;10.528;2022-08-19T14:18:51;28.60;1.00
48936;DHT22;34745;52.276;10.528;2022-08-19T14:21:59;29.20;1.00
48936;DHT22;34745;52.276;10.528;2022-08-19T14:25:11;29.30;99.90
48936;DHT22;34745;52.276;10.528;2022-08-19T14:28:45;29.20;99.90
48936;DHT22;34745;52.276;10.528;2022-08-19T14:35:50;29.00;99.90
48936;DHT22;34745;52.276;10.528;2022-08-19T14:39:24;29.30;99.90
48936;DHT22;34745;52.276;10.528;2022-08-19T14:43:03;28.80;1.00
48936;DHT22;34745;52.276;10.528;2022-08-19T14:46:18;28.90;1.00
48936;DHT22;34745;52.276;10.528;2022-08-19T14:49:27;29.70;99.90
48936;DHT22;34745;52.276;10.528;2022-08-19T14:55:41;29.70;99.90
48936;DHT22;34745;52.276;10.528;2022-08-19T14:58:42;29.20;99.90
48936;DHT22;34745;52.276;10.528;2022-08-19T15:02:11;28.50;1.40
48936;DHT22;34745;52.276;10.528;2022-08-19T15:08:15;29.40;99.90
48936;DHT22;34745;52.276;10.528;2022-08-19T15:11:12;29.50;99.90
48936;DHT22;34745;52.276;10.528;2022-08-19T15:13:51;29.40;99.90
48936;DHT22;34745;52.276;10.528;2022-08-19T15:16:45;29.90;99.90
48936;DHT22;34745;52.276;10.528;2022-08-19T15:19:28;29.40;99.90
48936;DHT22;34745;52.276;10.528;2022-08-19T15:24:57;29.90;99.90
48936;DHT22;34745;52.276;10.528;2022-08-19T15:27:46;30.10;99.90
48936;DHT22;34745;52.276;10.528;2022-08-19T15:30:40;29.40;99.90
48936;DHT22;34745;52.276;10.528;2022-08-19T15:37:02;28.80;99.90
48936;DHT22;34745;52.276;10.528;2022-08-19T15:39:49;28.90;99.90
48936;DHT22;34745;52.276;10.528;2022-08-19T15:42:36;28.80;99.90
48936;DHT22;34745;52.276;10.528;2022-08-19T15:45:34;28.50;99.90
48936;DHT22;34745;52.276;10.528;2022-08-19T15:48:14;29.00;99.90
48936;DHT22;34745;52.276;10.528;2022-08-19T15:51:08;28.80;99.90
48936;DHT22;34745;52.276;10.528;2022-08-19T15:54:43;28.60;99.90
48936;DHT22;34745;52.276;10.528;2022-08-19T15:57:30;28.10;99.90
48936;DHT22;34745;52.276;10.528;2022-08-19T16:01:07;27.80;1.40
48936;DHT22;34745;52.276;10.528;2022-08-19T16:04:19;27.60;1.00
48936;DHT22;34745;52.276;10.528;2022-08-19T16:07:52;27.50;1.00
48936;DHT22;34745;52.276;10.528;2022-08-19T16:11:12;27.70;1.00
48936;DHT22;34745;52.276;10.528;2022-08-19T16:14:20;27.90;1.00
48936;DHT22;34745;52.276;10.528;2022-08-19T16:17:27;27.80;1.00
48936;DHT22;34745;52.276;10.528;2022-08-19T16:20:09;27.20;1.00
48936;DHT22;34745;52.276;10.528;2022-08-19T16:23:01;26.80;1.00
48936;DHT22;34745;52.276;10.528;2022-08-19T16:25:44;26.20;1.00
48936;DHT22;34745;52.276;10.528;2022-08-19T16:28:40;26.10;1.00
48936;DHT22;34745;52.276;10.528;2022-08-19T16:31:29;26.00;1.00